Middleton, WI (53562)

7:43 AM CDT on April 26, 2017 (GMT -0500)
Sak's Woods, Middleton | | Change Station

Elev 948 ft 43.10 °N, 89.50 °W | Updated 12 seconds ago

Overcast
Overcast
58.0 °F
Feels Like 58.0 °F
N
0.0
Wind Variable Wind from East

Today
High -- | Low -- °F
--% Chance of Precip.
Yesterday
High -- | Low -- °F
Precip. -- in
Pressure 29.40 in
Visibility 10.0 miles
Clouds Scattered Clouds 6000 ft
Mostly Cloudy 7000 ft
Overcast 9000 ft
Dew Point 56 °F
Humidity 93%
Rainfall 0.20 in
Snow Depth Not available.
5:58 AM 7:53 PM
New Moon, 0% visible
METAR KC29 261235Z AUTO 16004KT 10SM SCT060 BKN070 OVC090 16/13 A2940 RMK AO1 T01630134
Pressure 29.40 in
Visibility 10.0 miles
Clouds Scattered Clouds 6000 ft
Mostly Cloudy 7000 ft
Overcast 9000 ft
Dew Point 56 °F
Humidity 93%
Rainfall 0.20 in
Snow Depth Not available.
5:58 AM 7:53 PM
New Moon, 0% visible
METAR KC29 261235Z AUTO 16004KT 10SM SCT060 BKN070 OVC090 16/13 A2940 RMK AO1 T01630134

Get Severe Weather Alerts

Thanks for signing up!

Be on the lookout for a verification email in your inbox.

You'll start receiving the daily forecast at 8 AM.

×

10-Day Weather Forecast

Almanac

Astronomy

Apr. 26, 2017 Rise Set
Actual Time
Civil Twilight
Nautical Twilight
Astronomical Twilight
Moon
Length of Visible Light
Length of Day
Tomorrow will be .
, % of the Moon is Illuminated

Today's Extremes

State Highs State Lows

Community

WunderPhotos

WunderBlog® & News

Nearby

Air Quality

  Air Quality AQ Index Pollutant
Not available.

Snow Depth

Station Depth Elevation

Earthquake Activity

City Distance Mag. Time & Date
Minimum magnitude displayed is 2.5.

Coastal Water Temperatures

Place Temperature

Stations

Nearby Weather Stations

Station Location Temp. Windchill Dew Point Humidity Wind Precip. Elev Updated Type
                   

Watches & Warnings

There are currently no watches in effect.